Latest Weather Observations for Charles Point

IDD60901

Issued at 8:01 pm CST Thursday 25 May 2017 (issued every 10 minutes, with the page automatically refreshed every 10 minutes)

About weather observations | Map of Darwin area stations | Latest observations for Darwin area | Other Formats
Station Details ID: 014031 Name: CHARLES POINT Lat: -12.39 Lon: 130.63 Height: 14.0 m
Data from the previous 72 hours. | See also: Recent months for locations in Northern Territory
Date/Time
CST
Temp
°C
App
Temp
°C
Dew
Point
°C
Rel
Hum
%
Delta-T
°C
Wind Press
QNH
hPa
Press
MSL
hPa
Rain since
9am
mm
Dir  Spd
km/h
Gust
km/h
Spd
kts
Gust
kts
25/08:00pm 28.4 31.5 22.9 72 3.8 NE 11 17 6 9 1011.5 1011.4 0.0
25/07:30pm 28.5 31.4 22.5 70 4.1 NE 11 17 6 9 1011.1 1011.0 0.0
25/07:00pm 28.6 31.6 22.6 70 4.1 NE 11 15 6 8 1010.9 1010.8 0.0
25/06:30pm 28.8 30.9 22.5 68 4.3 NE 15 20 8 11 1010.6 1010.5 0.0
25/06:00pm 29.2 31.3 22.4 66 4.6 NE 15 20 8 11 1010.4 1010.3 0.0
25/05:30pm 29.4 31.2 21.9 64 5.1 NE 15 22 8 12 1010.1 1010.0 0.0
25/05:00pm 29.7 31.3 22.2 64 5.1 NE 17 22 9 12 1010.0 1009.9 0.0
25/04:30pm 29.7 30.7 22.2 64 5.1 NE 20 28 11 15 1009.8 1009.7 0.0
25/04:00pm 30.2 31.3 22.4 63 5.3 NE 20 28 11 15 1009.8 1009.7 0.0
25/03:30pm 30.6 31.8 22.5 62 5.5 NE 20 30 11 16 1009.8 1009.7 0.0
25/03:00pm 30.6 30.9 20.8 56 6.5 NE 20 28 11 15 1010.1 1010.0 0.0
25/02:30pm 31.0 31.5 20.9 55 6.8 NE 19 26 10 14 1010.4 1010.3 0.0
25/02:00pm 31.3 32.7 21.8 57 6.4 NE 17 24 9 13 1010.9 1010.8 0.0
25/01:30pm 32.5 33.2 19.7 46 8.5 ENE 15 24 8 13 1011.4 1011.3 0.0
25/01:00pm 32.6 33.9 20.8 49 7.9 ENE 15 22 8 12 1011.8 1011.7 0.0
25/12:30pm 31.8 34.1 21.3 53 7.1 ENE 11 22 6 12 1012.1 1012.0 0.0
25/12:00pm 31.3 32.8 20.6 53 7.1 ENE 13 24 7 13 1012.6 1012.5 0.0
25/11:30am 31.2 32.9 20.2 52 7.3 E 11 19 6 10 1013.0 1012.9 0.0
25/11:00am 30.0 30.7 19.7 54 6.7 E 15 24 8 13 1013.4 1013.3 0.0
25/10:30am 29.4 30.9 19.7 56 6.3 ESE 11 20 6 11 1013.5 1013.4 0.0
25/10:00am 28.5 30.1 20.0 60 5.6 ESE 11 22 6 12 1013.6 1013.5 0.0
25/09:30am 28.1 29.8 20.1 62 5.2 ESE 11 26 6 14 1013.5 1013.4 0.0
25/09:00am 27.2 29.2 20.0 64 4.7 SE 9 17 5 9 1013.3 1013.2 0.0
25/08:30am 25.9 27.8 19.8 69 4.0 SE 9 15 5 8 1013.1 1013.0 0.0
25/08:00am 24.8 27.2 19.6 73 3.3 SE 6 9 3 5 1012.6 1012.5 0.0
25/07:30am 23.7 25.7 19.2 76 2.9 SE 7 11 4 6 1012.4 1012.3 0.0
25/07:00am 23.4 25.3 18.9 76 2.9 SE 7 13 4 7 1012.1 1012.0 0.0
25/06:30am 23.8 25.9 18.9 74 3.1 ESE 6 11 3 6 1011.8 1011.7 0.0
25/06:00am 24.5 26.4 18.9 71 3.6 ESE 7 13 4 7 1011.5 1011.4 0.0
25/05:30am 25.1 26.0 18.5 67 4.2 SE 11 19 6 10 1011.4 1011.3 0.0
25/05:00am 26.1 27.4 19.2 65 4.4 ESE 11 22 6 12 1011.5 1011.4 0.0
25/04:30am 25.3 26.9 19.2 69 3.9 ESE 9 20 5 11 1011.5 1011.4 0.0
25/04:00am 24.0 26.2 19.5 76 2.9 ESE 7 9 4 5 1011.5 1011.4 0.0
25/03:30am 23.5 25.5 19.2 77 2.7 SSE 7 13 4 7 1011.7 1011.6 0.0
25/03:00am 23.6 25.1 18.9 75 3.0 S 9 11 5 6 1011.8 1011.7 0.0
25/02:30am 23.9 25.8 19.0 74 3.1 SSE 7 11 4 6 1012.0 1011.9 0.0
25/02:00am 24.0 26.2 19.7 77 2.8 SSE 7 9 4 5 1012.3 1012.2 0.0
25/01:30am 24.2 26.8 20.1 78 2.7 SSE 6 9 3 5 1012.4 1012.3 0.0
25/01:00am 24.1 26.8 20.6 81 2.3 SSE 7 9 4 5 1012.4 1012.3 0.0
25/12:30am 23.8 26.5 20.7 83 2.0 S 7 9 4 5 1012.5 1012.4 0.0
25/12:00am 23.8 26.5 20.7 83 2.0 SSE 7 9 4 5 1012.4 1012.3 0.0
 
Date/Time
CST
Temp
°C
App
Temp
°C
Dew
Point
°C
Rel
Hum
%
Delta-T
°C
Wind Press
QNH
hPa
Press
MSL
hPa
Rain since
9am
mm
Dir  Spd
km/h
Gust
km/h
Spd
kts
Gust
kts
24/11:30pm 24.0 26.7 20.7 82 2.2 SSE 7 9 4 5 1012.5 1012.4 0.0
24/11:00pm 24.3 27.1 20.8 81 2.3 SSE 7 11 4 6 1012.7 1012.6 0.0
24/10:30pm 23.9 26.6 20.6 82 2.2 ESE 7 9 4 5 1012.7 1012.6 0.0
24/10:00pm 24.6 28.2 20.5 78 2.7 E 2 4 1 2 1012.6 1012.5 0.0
24/09:30pm 26.0 29.6 20.6 72 3.5 ENE 2 4 1 2 1012.4 1012.3 0.0
24/09:00pm 26.9 30.2 20.7 69 4.1 ENE 4 6 2 3 1012.1 1012.0 0.0
24/08:30pm 27.4 30.5 21.0 68 4.2 ENE 6 13 3 7 1012.0 1011.9 0.0
24/08:00pm 27.7 31.0 21.5 69 4.1 ENE 6 11 3 6 1011.4 1011.3 0.0
24/07:30pm 28.0 31.5 21.8 69 4.2 ENE 6 13 3 7 1011.1 1011.0 0.0
24/07:00pm 28.7 31.7 22.0 67 4.5 NE 9 15 5 8 1010.9 1010.8 0.0
24/06:30pm 28.8 30.7 21.3 64 5.0 NE 13 19 7 10 1010.5 1010.4 0.0
24/06:00pm 29.3 30.7 21.0 61 5.5 NNE 15 22 8 12 1010.1 1010.0 0.0
24/05:30pm 29.7 30.7 21.1 60 5.7 NE 17 22 9 12 1009.7 1009.6 0.0
24/05:00pm 29.8 30.2 20.6 57 6.1 NNE 19 24 10 13 1009.5 1009.4 0.0
24/04:30pm 30.2 31.3 20.4 55 6.5 NE 15 20 8 11 1009.3 1009.2 0.0
24/04:00pm 30.6 30.8 20.5 54 6.7 NE 20 24 11 13 1009.2 1009.1 0.0
24/03:30pm 31.3 32.1 20.6 53 7.1 NNE 17 24 9 13 1009.5 1009.4 0.0
24/03:00pm 34.1 34.2 15.5 32 11.6 E 9 20 5 11 1009.6 1009.5 0.0
24/02:30pm 33.7 32.6 14.2 30 12.0 E 13 24 7 13 1010.1 1010.0 0.0
24/02:00pm 33.6 33.9 16.9 37 10.6 E 11 17 6 9 1010.5 1010.4 0.0
24/01:30pm 33.6 33.1 16.0 34 11.1 E 13 20 7 11 1010.9 1010.8 0.0
24/01:00pm 33.7 34.0 17.0 37 10.7 E 11 20 6 11 1011.3 1011.2 0.0
24/12:30pm 32.8 33.8 18.6 43 9.2 E 11 17 6 9 1011.7 1011.6 0.0
24/12:00pm 32.6 34.5 19.8 46 8.5 ENE 9 17 5 9 1012.2 1012.1 0.0
24/11:30am 32.0 33.7 19.3 47 8.3 ESE 9 15 5 8 1012.8 1012.7 0.0
24/11:00am 30.8 32.1 19.2 50 7.6 ESE 11 17 6 9 1013.3 1013.2 0.0
24/10:30am 30.8 33.1 20.7 55 6.7 ESE 9 17 5 9 1013.6 1013.5 0.0
24/10:00am 29.6 31.5 20.5 58 6.0 E 11 19 6 10 1013.7 1013.6 0.0
24/09:30am 29.3 31.6 20.7 59 5.7 ESE 9 20 5 11 1013.6 1013.5 0.0
24/09:00am 28.6 31.8 22.3 68 4.3 ESE 9 13 5 7 1013.4 1013.3 0.0
24/08:30am 27.3 31.4 22.9 77 3.0 SSE 6 9 3 5 1013.1 1013.0 0.0
24/08:00am 25.6 30.4 24.2 92 1.0 S 6 7 3 4 1012.7 1012.6 0.0
24/07:30am 24.5 28.8 23.3 93 0.8 S 6 9 3 5 1012.4 1012.3 0.0
24/07:00am 24.3 28.3 23.1 93 0.8 S 7 9 4 5 1012.1 1012.0 0.0
24/06:30am 24.6 28.7 23.2 92 0.9 S 7 9 4 5 1011.8 1011.7 0.0
24/06:00am 24.6 28.5 23.0 91 1.1 S 7 9 4 5 1011.5 1011.4 0.0
24/05:30am 24.8 28.7 23.0 90 1.2 S 7 11 4 6 1011.4 1011.3 0.0
24/05:00am 24.9 28.7 22.8 88 1.4 S 7 11 4 6 1011.2 1011.1 0.0
24/04:30am 25.1 28.6 22.8 87 1.6 S 9 15 5 8 1011.1 1011.0 0.0
24/04:00am 25.2 28.9 22.5 85 1.8 SSE 7 13 4 7 1011.1 1011.0 0.0
24/03:30am 25.3 28.3 22.0 82 2.2 S 9 13 5 7 1011.2 1011.1 0.0
24/03:00am 25.2 28.5 21.9 82 2.2 S 7 11 4 6 1011.2 1011.1 0.0
24/02:30am 25.3 28.1 21.6 80 2.5 S 9 13 5 7 1011.2 1011.1 0.0
24/02:00am 25.4 28.5 21.5 79 2.6 SSE 7 11 4 6 1011.4 1011.3 0.0
24/01:30am 25.4 28.3 21.7 80 2.5 SSE 9 13 5 7 1011.5 1011.4 0.0
24/01:00am 25.1 28.5 22.0 83 2.1 S 7 11 4 6 1011.8 1011.7 0.0
24/12:30am 25.1 28.7 22.4 85 1.8 S 7 11 4 6 1012.0 1011.9 0.0
24/12:00am 25.4 29.2 22.7 85 1.8 SSE 7 9 4 5 1012.1 1012.0 0.0
 
Date/Time
CST
Temp
°C
App
Temp
°C
Dew
Point
°C
Rel
Hum
%
Delta-T
°C
Wind Press
QNH
hPa
Press
MSL
hPa
Rain since
9am
mm
Dir  Spd
km/h
Gust
km/h
Spd
kts
Gust
kts
23/11:30pm 25.9 30.8 23.0 84 2.0 ENE 2 4 1 2 1012.2 1012.1 0.0
23/11:00pm 27.2 32.1 23.0 78 2.9 NE 2 6 1 3 1012.2 1012.1 0.0
23/10:30pm 27.9 32.2 23.3 76 3.1 NE 6 11 3 6 1012.3 1012.2 0.0
23/10:00pm 28.4 32.8 23.8 76 3.2 NE 7 11 4 6 1012.4 1012.3 0.0
23/09:30pm 28.5 32.8 23.6 75 3.4 NE 7 11 4 6 1012.4 1012.3 0.0
23/09:00pm 28.6 32.3 23.9 75 3.2 NE 11 15 6 8 1012.2 1012.1 0.0
23/08:30pm 28.4 32.5 23.3 74 3.5 ENE 7 15 4 8 1011.9 1011.8 0.0
23/08:00pm 28.9 32.4 23.6 73 3.6 NE 11 17 6 9 1011.7 1011.6 0.0
23/07:30pm 29.1 32.4 23.8 73 3.7 NE 13 19 7 10 1011.4 1011.3 0.0
23/07:00pm 29.2 30.8 22.2 66 4.7 NE 17 22 9 12 1011.0 1010.9 0.0
23/06:30pm 29.4 30.5 21.9 64 5.1 NE 19 24 10 13 1010.8 1010.7 0.0
23/06:00pm 29.6 31.0 22.8 67 4.6 NE 20 30 11 16 1010.5 1010.4 0.0
23/05:30pm 29.9 31.3 22.6 65 5.0 NE 19 26 10 14 1010.4 1010.3 0.0
23/05:00pm 30.4 32.3 22.8 64 5.2 NE 17 26 9 14 1010.1 1010.0 0.0
23/04:30pm 30.7 32.3 22.8 62 5.4 NE 19 26 10 14 1009.9 1009.8 0.0
23/04:00pm 30.8 31.6 22.4 61 5.7 NNE 22 28 12 15 1009.9 1009.8 0.0
23/03:30pm 30.8 32.1 22.7 62 5.5 NNE 20 26 11 14 1010.0 1009.9 0.0
23/03:00pm 31.6 34.0 23.7 63 5.5 NNE 17 24 9 13 1010.1 1010.0 0.0
23/02:30pm 31.4 34.3 23.2 61 5.7 N 13 20 7 11 1010.4 1010.3 0.0
23/02:00pm 30.9 34.2 23.8 66 4.9 N 13 17 7 9 1010.8 1010.7 0.0
23/01:30pm 31.1 34.0 23.2 63 5.4 N 13 17 7 9 1011.2 1011.1 0.0
23/01:00pm 31.9 35.8 22.6 58 6.4 ENE 6 9 3 5 1011.6 1011.5 0.0
23/12:30pm 33.0 38.0 24.5 61 6.0 ENE 6 9 3 5 1012.0 1011.9 0.0
23/12:00pm 31.8 36.4 24.1 63 5.4 ENE 7 13 4 7 1012.4 1012.3 0.0
23/11:30am 32.1 36.9 24.2 63 5.5 ENE 6 9 3 5 1012.8 1012.7 0.0
23/11:00am 31.4 36.0 23.8 64 5.3 ESE 6 11 3 6 1013.0 1012.9 0.0
23/10:30am 30.8 34.9 23.2 64 5.2 SE 7 11 4 6 1013.3 1013.2 0.0
23/10:00am 30.2 35.1 24.4 71 4.0 SE 6 9 3 5 1013.4 1013.3 0.0
23/09:30am 29.4 34.5 24.7 76 3.3 SE 6 9 3 5 1013.4 1013.3 0.0
23/09:00am 28.5 33.2 23.9 76 3.2 SSE 6 9 3 5 1013.2 1013.1 0.0
23/08:30am 26.9 31.6 24.0 84 2.0 SSE 6 7 3 4 1013.1 1013.0 0.0
23/08:00am 25.8 31.9 24.4 92 1.0 CALM 0 0 0 0 1012.7 1012.6 0.0
23/07:30am 24.7 29.9 23.5 93 0.8 SSE 2 4 1 2 1012.4 1012.3 0.0
23/07:00am 24.6 30.1 23.4 93 0.8 CALM 0 0 0 0 1012.1 1012.0 0.0
23/06:30am 24.8 29.7 23.6 93 0.8 SSE 4 6 2 3 1011.9 1011.8 0.0
23/06:00am 25.0 30.0 23.8 93 0.8 SSE 4 6 2 3 1011.5 1011.4 0.0
23/05:30am 25.2 29.8 23.8 92 1.0 S 6 7 3 4 1011.2 1011.1 0.0
23/05:00am 25.1 29.6 23.7 92 1.0 S 6 9 3 5 1011.0 1010.9 0.0
23/04:30am 25.2 29.7 23.6 91 1.1 S 6 9 3 5 1011.0 1010.9 0.0
23/04:00am 25.3 29.5 23.5 90 1.2 S 7 11 4 6 1011.0 1010.9 0.0
23/03:30am 25.3 29.5 23.5 90 1.2 S 7 11 4 6 1011.1 1011.0 0.0
23/03:00am 25.4 29.6 23.5 89 1.3 S 7 11 4 6 1011.2 1011.1 0.0
23/02:30am 25.5 29.8 23.6 89 1.3 S 7 11 4 6 1011.3 1011.2 0.0
23/01:30am 25.7 29.8 23.2 86 1.7 S 7 9 4 5 1011.8 1011.7 0.0
23/01:00am 25.5 29.4 23.0 86 1.7 SSE 7 9 4 5 1012.0 1011.9 0.0
23/12:30am 25.0 29.2 23.1 89 1.3 SE 6 9 3 5 1012.1 1012.0 0.0
23/12:00am 25.0 29.2 23.1 89 1.3 SE 6 6 3 3 1012.3 1012.2 0.0
 
Date/Time
CST
Temp
°C
App
Temp
°C
Dew
Point
°C
Rel
Hum
%
Delta-T
°C
Wind Press
QNH
hPa
Press
MSL
hPa
Rain since
9am
mm
Dir  Spd
km/h
Gust
km/h
Spd
kts
Gust
kts
22/11:30pm 25.1 29.2 23.0 88 1.4 SE 6 6 3 3 1012.3 1012.2 0.0
22/11:00pm 25.3 29.9 23.2 88 1.4 SE 4 6 2 3 1012.6 1012.5 0.0
22/10:30pm 25.5 30.1 23.2 87 1.6 SE 4 4 2 2 1012.7 1012.6 0.0
22/10:00pm 25.7 30.7 23.2 86 1.7 SE 2 4 1 2 1012.7 1012.6 0.0
22/09:30pm 26.1 30.3 23.2 84 2.0 ESE 6 7 3 4 1012.7 1012.6 0.0
22/09:00pm 26.2 30.4 23.1 83 2.1 ENE 6 7 3 4 1012.6 1012.5 0.0
22/08:30pm 26.5 31.1 23.2 82 2.2 ENE 4 6 2 3 1012.5 1012.4 0.0

Latest Capital City Observations: Canberra | Sydney | Melbourne | Brisbane | Adelaide | Perth | Hobart | Darwin

Other Formats:

Comma delimited format used in spreadsheet applications
http://www.bom.gov.au/fwo/IDD60901/IDD60901.99510.axf

JavaScript Object Notation format (JSON) in row-major order
http://www.bom.gov.au/fwo/IDD60901/IDD60901.99510.json